createdAt,value
2017-11-10T00:00:04.330Z,75.7
2017-11-10T00:15:04.743Z,76.8
2017-11-10T00:30:04.821Z,76.2
2017-11-10T00:45:04.286Z,74.7
2017-11-10T01:00:04.296Z,75.5
2017-11-10T01:15:12.013Z,76
2017-11-10T01:30:08.235Z,75.9
2017-11-10T01:45:05.411Z,75.8
2017-11-10T02:00:20.261Z,75.6
2017-11-10T02:15:06.273Z,75
2017-11-10T02:30:04.987Z,72.6
2017-11-10T02:45:04.490Z,74.1
2017-11-10T03:00:05.488Z,72.5
2017-11-10T03:30:04.639Z,71.3
2017-11-10T03:45:04.550Z,72.4
2017-11-10T04:00:04.514Z,72.2
2017-11-10T04:15:04.472Z,74.3
2017-11-10T04:30:04.661Z,74.4
2017-11-10T04:45:04.631Z,73.2
2017-11-10T05:00:05.572Z,72.6
2017-11-10T05:15:05.529Z,73
2017-11-10T05:30:04.396Z,72.1
2017-11-10T05:45:05.377Z,72.8
2017-11-10T06:00:07.396Z,73.8
2017-11-10T06:15:04.852Z,73.1
2017-11-10T06:30:07.523Z,72.5
2017-11-10T06:45:04.944Z,72.1
2017-11-10T07:00:04.340Z,70.2
2017-11-10T07:15:04.718Z,71.3
2017-11-10T07:30:04.410Z,71.8
2017-11-10T07:45:07.818Z,70.7
2017-11-10T08:00:07.813Z,70.5
2017-11-10T08:15:05.679Z,71.2
2017-11-10T08:30:05.885Z,71.5
2017-11-10T08:45:04.806Z,70.7
2017-11-10T09:00:04.710Z,68.8
2017-11-10T09:15:05.125Z,70.1
2017-11-10T09:30:05.220Z,69
2017-11-10T09:45:14.861Z,67
2017-11-10T10:00:07.739Z,65.6
2017-11-10T10:15:04.656Z,64.1
2017-11-10T10:30:04.780Z,63.8
2017-11-10T10:45:07.756Z,64.1
2017-11-10T11:00:04.666Z,63.8
2017-11-10T11:15:05.776Z,64.3
2017-11-10T11:30:07.645Z,63.4
2017-11-10T11:45:04.688Z,63.3
2017-11-10T12:00:05.147Z,61.5
2017-11-10T12:15:05.171Z,62.6
2017-11-10T12:30:05.231Z,61.4
2017-11-10T12:45:15.764Z,63.3
2017-11-10T13:00:05.923Z,63.7
2017-11-10T13:15:04.636Z,64.7
2017-11-10T13:30:06.116Z,65.5
2017-11-10T13:45:05.128Z,66.5
2017-11-10T14:00:05.652Z,66.6
2017-11-10T14:15:05.919Z,66.8
2017-11-10T14:30:05.095Z,66.9
2017-11-10T14:45:04.878Z,67.3
2017-11-10T15:00:04.815Z,69.2
2017-11-10T15:15:05.853Z,68.5
2017-11-10T15:30:04.619Z,68.4
2017-11-10T15:45:05.359Z,70.9
2017-11-10T16:00:04.853Z,71.2
2017-11-10T16:15:07.950Z,70.5
2017-11-10T16:30:04.352Z,71.1
2017-11-10T16:45:04.256Z,71.7
2017-11-10T17:00:05.193Z,72.2
2017-11-10T17:15:05.102Z,72.7
2017-11-10T17:30:05.278Z,73.3
2017-11-10T17:45:05.254Z,73.8
2017-11-10T18:00:07.816Z,74.2
2017-11-10T18:15:04.691Z,73.9
2017-11-10T18:30:04.310Z,74.2
2017-11-10T18:45:04.721Z,73.9
2017-11-10T19:00:04.664Z,73.7
2017-11-10T19:15:05.051Z,74
2017-11-10T19:30:20.590Z,73.2
2017-11-10T19:45:07.679Z,72.3
2017-11-10T20:00:04.649Z,74.2
2017-11-10T20:15:05.089Z,74.9
2017-11-10T20:30:04.702Z,75.8
2017-11-10T20:45:05.083Z,76.1
2017-11-10T21:00:05.533Z,75.9
2017-11-10T21:15:04.958Z,75.7
2017-11-10T21:30:05.117Z,76.7
2017-11-10T21:45:04.505Z,77
2017-11-10T22:00:12.121Z,76.9
2017-11-10T22:15:06.093Z,76.9
2017-11-10T22:30:05.161Z,76.4
2017-11-10T22:45:05.638Z,77.5
2017-11-10T23:00:05.071Z,77.9
2017-11-10T23:15:20.125Z,78.4
2017-11-10T23:30:05.222Z,78.4
2017-11-10T23:45:06.241Z,77.2
